createdAt,value
2017-07-22T00:00:59.009Z,0
2017-07-22T00:01:58.688Z,0
2017-07-22T00:02:59.074Z,0
2017-07-22T00:03:58.967Z,0
2017-07-22T00:04:58.973Z,0
2017-07-22T00:05:58.956Z,0
2017-07-22T00:06:58.938Z,0
2017-07-22T00:07:58.982Z,0
2017-07-22T00:08:58.919Z,0
2017-07-22T00:09:57.948Z,0
2017-07-22T00:10:58.888Z,0
2017-07-22T00:11:58.539Z,0
2017-07-22T00:12:58.899Z,0
2017-07-22T00:13:58.526Z,0
2017-07-22T00:14:58.498Z,0
2017-07-22T00:15:58.190Z,0
2017-07-22T00:16:58.486Z,0
2017-07-22T00:17:58.829Z,0
2017-07-22T00:18:58.488Z,0
2017-07-22T00:19:58.127Z,0
2017-07-22T00:20:58.778Z,0
2017-07-22T00:21:58.797Z,0
2017-07-22T00:22:58.710Z,0
2017-07-22T00:23:58.698Z,0
2017-07-22T00:24:58.696Z,0
2017-07-22T00:25:58.665Z,0
2017-07-22T00:26:58.669Z,0
2017-07-22T00:27:58.347Z,0
2017-07-22T00:28:58.337Z,0
2017-07-22T00:29:58.318Z,0
2017-07-22T00:30:57.989Z,0
2017-07-22T00:31:57.976Z,0
2017-07-22T00:32:58.267Z,0
2017-07-22T00:33:58.267Z,0
2017-07-22T00:34:57.952Z,0
2017-07-22T00:35:58.243Z,0
2017-07-22T00:36:57.924Z,0
2017-07-22T00:37:57.907Z,0
2017-07-22T00:38:57.886Z,0
2017-07-22T00:39:57.867Z,0
2017-07-22T00:40:58.468Z,0
2017-07-22T00:41:58.146Z,0
2017-07-22T00:42:58.437Z,0
2017-07-22T00:43:57.828Z,0
2017-07-22T00:44:58.426Z,0
2017-07-22T00:45:57.787Z,0
2017-07-22T00:46:57.791Z,0
2017-07-22T00:47:58.067Z,0
2017-07-22T00:48:58.078Z,0
2017-07-22T00:49:57.446Z,0
2017-07-22T00:50:58.054Z,0
2017-07-22T00:51:57.727Z,0
2017-07-22T00:52:58.310Z,0
2017-07-22T00:53:58.300Z,0
2017-07-22T00:54:57.682Z,0
2017-07-22T00:55:58.272Z,0
2017-07-22T00:56:58.257Z,0
2017-07-22T00:57:57.949Z,0
2017-07-22T00:58:57.634Z,0
2017-07-22T00:59:57.671Z,0
2017-07-22T01:00:57.946Z,0
2017-07-22T01:01:57.909Z,0
2017-07-22T01:02:58.185Z,0
2017-07-22T01:03:57.918Z,0
2017-07-22T01:04:57.561Z,0
2017-07-22T01:05:57.842Z,0
2017-07-22T01:06:57.835Z,0
2017-07-22T01:07:58.220Z,0
2017-07-22T01:08:57.798Z,0
2017-07-22T01:09:57.599Z,0
2017-07-22T01:10:57.773Z,0
2017-07-22T01:11:57.775Z,0
2017-07-22T01:12:57.748Z,0
2017-07-22T01:13:57.775Z,0
2017-07-22T01:14:57.738Z,0
2017-07-22T01:15:57.738Z,0
2017-07-22T01:16:58.015Z,0
2017-07-22T01:17:57.987Z,0
2017-07-22T01:18:57.708Z,0
2017-07-22T01:19:58.027Z,0
2017-07-22T01:20:57.337Z,0
2017-07-22T01:21:57.705Z,0
2017-07-22T01:22:57.628Z,0
2017-07-22T01:23:57.667Z,0
2017-07-22T01:24:57.648Z,0
2017-07-22T01:25:57.629Z,0
2017-07-22T01:26:57.585Z,0
2017-07-22T01:27:57.609Z,0
2017-07-22T01:28:57.544Z,0
2017-07-22T01:29:57.624Z,0
2017-07-22T01:30:57.828Z,0
2017-07-22T01:31:57.807Z,0
2017-07-22T01:32:57.860Z,0
2017-07-22T01:33:57.460Z,0
2017-07-22T01:34:57.782Z,0
2017-07-22T01:35:57.519Z,0
2017-07-22T01:36:57.730Z,0
2017-07-22T01:37:57.778Z,0
2017-07-22T01:38:57.426Z,0
2017-07-22T01:39:57.087Z,0
2017-07-22T01:40:57.693Z,0
2017-07-22T01:41:57.707Z,0
2017-07-22T01:42:57.663Z,0
2017-07-22T01:43:57.335Z,0
2017-07-22T01:44:57.326Z,0
2017-07-22T01:45:57.302Z,0
2017-07-22T01:46:56.996Z,0
2017-07-22T01:47:57.609Z,0
2017-07-22T01:48:57.607Z,0
2017-07-22T01:49:57.562Z,0
2017-07-22T01:50:57.241Z,0
2017-07-22T01:51:57.232Z,0
2017-07-22T01:52:57.218Z,0
2017-07-22T01:53:57.197Z,0
2017-07-22T01:54:57.216Z,0
2017-07-22T01:55:57.487Z,0
2017-07-22T01:56:57.167Z,0
2017-07-22T01:57:57.151Z,0
2017-07-22T01:58:57.149Z,0
2017-07-22T01:59:57.127Z,0
2017-07-22T02:00:57.108Z,0
2017-07-22T02:01:57.406Z,0
2017-07-22T02:02:57.417Z,0
2017-07-22T02:03:57.385Z,0
2017-07-22T02:04:57.377Z,0
2017-07-22T02:05:57.044Z,0
2017-07-22T02:06:57.032Z,0
2017-07-22T02:07:57.117Z,0
2017-07-22T02:08:57.307Z,0
2017-07-22T02:09:57.002Z,0
2017-07-22T02:10:57.289Z,0
2017-07-22T02:11:56.974Z,0
2017-07-22T02:12:57.286Z,0
2017-07-22T02:13:56.956Z,0
2017-07-22T02:14:57.226Z,0
2017-07-22T02:15:57.219Z,0
2017-07-22T02:16:57.201Z,0
2017-07-22T02:17:57.187Z,0
2017-07-22T02:18:56.877Z,0
2017-07-22T02:19:57.176Z,0
2017-07-22T02:20:57.160Z,0
2017-07-22T02:21:56.529Z,0
2017-07-22T02:22:57.116Z,0
2017-07-22T02:23:57.106Z,0
2017-07-22T02:24:57.117Z,0
2017-07-22T02:25:56.797Z,0
2017-07-22T02:26:56.765Z,0
2017-07-22T02:27:56.835Z,0
2017-07-22T02:28:57.033Z,0
2017-07-22T02:29:57.028Z,0
2017-07-22T02:30:56.706Z,0
2017-07-22T02:31:56.706Z,0
2017-07-22T02:32:56.775Z,0
2017-07-22T02:33:56.671Z,0
2017-07-22T02:34:56.650Z,0
2017-07-22T02:35:56.644Z,0
2017-07-22T02:36:56.704Z,0
2017-07-22T02:37:56.668Z,0
2017-07-22T02:38:56.697Z,0
2017-07-22T02:39:56.902Z,0
2017-07-22T02:40:56.587Z,0
2017-07-22T02:41:56.547Z,0
2017-07-22T02:42:56.226Z,0
2017-07-22T02:43:56.959Z,0
2017-07-22T02:44:56.560Z,0
2017-07-22T02:45:56.815Z,0
2017-07-22T02:46:56.196Z,0
2017-07-22T02:47:56.477Z,0
2017-07-22T02:48:56.462Z,0
2017-07-22T02:49:56.446Z,0
2017-07-22T02:50:56.132Z,0
2017-07-22T02:51:56.416Z,0
2017-07-22T02:52:56.418Z,0
2017-07-22T02:53:56.396Z,0
2017-07-22T02:54:56.744Z,0
2017-07-22T02:55:56.676Z,0
2017-07-22T02:56:56.353Z,0
2017-07-22T02:57:56.716Z,0
2017-07-22T02:58:56.626Z,0
2017-07-22T02:59:56.286Z,0
2017-07-22T03:00:56.598Z,0
2017-07-22T03:01:56.576Z,0
2017-07-22T03:02:56.256Z,0
2017-07-22T03:03:56.550Z,0
2017-07-22T03:04:56.546Z,0
2017-07-22T03:05:56.228Z,0
2017-07-22T03:06:55.905Z,0
2017-07-22T03:07:56.495Z,0
2017-07-22T03:08:56.236Z,0
2017-07-22T03:09:56.483Z,0
2017-07-22T03:10:56.146Z,0
2017-07-22T03:11:55.838Z,0
2017-07-22T03:12:56.127Z,0
2017-07-22T03:13:56.421Z,0
2017-07-22T03:14:56.397Z,0
2017-07-22T03:15:56.070Z,0
2017-07-22T03:16:56.078Z,0
2017-07-22T03:17:56.377Z,0
2017-07-22T03:18:55.729Z,0
2017-07-22T03:19:56.003Z,0
2017-07-22T03:20:56.306Z,0
2017-07-22T03:21:55.987Z,0
2017-07-22T03:22:56.267Z,0
2017-07-22T03:23:56.297Z,0
2017-07-22T03:24:55.943Z,0
2017-07-22T03:25:55.595Z,0
2017-07-22T03:26:55.895Z,0
2017-07-22T03:27:56.199Z,0
2017-07-22T03:28:56.177Z,0
2017-07-22T03:29:56.168Z,0
2017-07-22T03:30:55.846Z,4
2017-07-22T03:31:55.219Z,4
2017-07-22T03:32:55.496Z,4
2017-07-22T03:33:55.921Z,4
2017-07-22T03:34:55.778Z,4
2017-07-22T03:35:55.777Z,4
2017-07-22T03:36:56.071Z,4
2017-07-22T03:37:55.838Z,0
2017-07-22T03:38:56.036Z,4
2017-07-22T03:39:55.406Z,4
2017-07-22T03:40:55.997Z,4
2017-07-22T03:41:55.383Z,4
2017-07-22T03:42:55.387Z,8
2017-07-22T03:43:55.656Z,8
2017-07-22T03:44:55.936Z,4
2017-07-22T03:45:55.927Z,4
2017-07-22T03:46:55.596Z,8
2017-07-22T03:47:55.387Z,8
2017-07-22T03:48:55.619Z,8
2017-07-22T03:49:55.866Z,12
2017-07-22T03:50:55.847Z,8
2017-07-22T03:51:55.527Z,12
2017-07-22T03:52:55.835Z,12
2017-07-22T03:53:55.802Z,12
2017-07-22T03:54:55.497Z,12
2017-07-22T03:55:55.477Z,16
2017-07-22T03:56:55.758Z,12
2017-07-22T03:57:55.728Z,12
2017-07-22T03:58:55.419Z,16
2017-07-22T03:59:55.417Z,16
2017-07-22T04:00:55.448Z,16
2017-07-22T04:01:55.135Z,20
2017-07-22T04:02:55.042Z,20
2017-07-22T04:03:55.336Z,20
2017-07-22T04:04:55.349Z,24
2017-07-22T04:05:55.309Z,28
2017-07-22T04:06:54.698Z,28
2017-07-22T04:07:54.991Z,32
2017-07-22T04:08:55.369Z,32
2017-07-22T04:09:55.379Z,32
2017-07-22T04:10:55.238Z,36
2017-07-22T04:11:55.253Z,36
2017-07-22T04:12:55.266Z,36
2017-07-22T04:13:55.203Z,40
2017-07-22T04:14:54.889Z,40
2017-07-22T04:15:55.464Z,44
2017-07-22T04:16:55.160Z,44
2017-07-22T04:17:55.539Z,44
2017-07-22T04:18:55.118Z,48
2017-07-22T04:19:55.416Z,48
2017-07-22T04:20:54.782Z,48
2017-07-22T04:21:55.403Z,52
2017-07-22T04:22:55.459Z,56
2017-07-22T04:23:55.428Z,56
2017-07-22T04:24:55.339Z,60
2017-07-22T04:25:55.323Z,60
2017-07-22T04:26:55.379Z,60
2017-07-22T04:27:55.301Z,64
2017-07-22T04:28:54.979Z,64
2017-07-22T04:29:55.018Z,72
2017-07-22T04:30:55.260Z,72
2017-07-22T04:31:54.627Z,76
2017-07-22T04:32:55.309Z,80
2017-07-22T04:33:55.208Z,84
2017-07-22T04:34:54.878Z,84
2017-07-22T04:35:55.176Z,88
2017-07-22T04:36:54.838Z,92
2017-07-22T04:37:54.517Z,88
2017-07-22T04:38:55.129Z,88
2017-07-22T04:39:54.820Z,92
2017-07-22T04:40:55.108Z,88
2017-07-22T04:41:54.789Z,92
2017-07-22T04:42:54.458Z,88
2017-07-22T04:43:54.438Z,92
2017-07-22T04:44:54.721Z,92
2017-07-22T04:45:54.699Z,96
2017-07-22T04:46:54.709Z,96
2017-07-22T04:47:54.397Z,100
2017-07-22T04:48:54.679Z,108
2017-07-22T04:49:54.675Z,108
2017-07-22T04:50:54.998Z,116
2017-07-22T04:51:55.039Z,120
2017-07-22T04:52:54.607Z,128
2017-07-22T04:53:54.956Z,136
2017-07-22T04:54:54.891Z,148
2017-07-22T04:55:54.879Z,156
2017-07-22T04:56:54.549Z,168
2017-07-22T04:57:54.850Z,180
2017-07-22T04:58:54.220Z,188
2017-07-22T04:59:54.541Z,200
2017-07-22T05:00:54.810Z,216
2017-07-22T05:01:54.800Z,224
2017-07-22T05:02:54.779Z,236
2017-07-22T05:03:54.769Z,244
2017-07-22T05:04:54.160Z,256
2017-07-22T05:05:54.728Z,264
2017-07-22T05:06:54.099Z,272
2017-07-22T05:07:54.385Z,280
2017-07-22T05:08:54.382Z,280
2017-07-22T05:09:54.070Z,276
2017-07-22T05:10:54.037Z,272
2017-07-22T05:11:54.643Z,272
2017-07-22T05:12:54.010Z,264
2017-07-22T05:13:53.996Z,260
2017-07-22T05:14:54.598Z,256
2017-07-22T05:15:54.278Z,252
2017-07-22T05:16:54.285Z,252
2017-07-22T05:17:54.569Z,248
2017-07-22T05:18:53.943Z,248
2017-07-22T05:19:54.230Z,256
2017-07-22T05:20:54.230Z,260
2017-07-22T05:21:54.190Z,264
2017-07-22T05:22:54.179Z,268
2017-07-22T05:23:54.178Z,276
2017-07-22T05:24:54.469Z,288
2017-07-22T05:25:54.140Z,304
2017-07-22T05:26:54.129Z,320
2017-07-22T05:27:54.418Z,340
2017-07-22T05:28:53.891Z,360
2017-07-22T05:29:54.383Z,388
2017-07-22T05:30:54.393Z,420
2017-07-22T05:31:53.749Z,452
2017-07-22T05:32:54.346Z,476
2017-07-22T05:33:54.329Z,496
2017-07-22T05:34:53.711Z,516
2017-07-22T05:35:54.301Z,524
2017-07-22T05:36:54.274Z,544
2017-07-22T05:37:54.259Z,592
2017-07-22T05:38:54.030Z,668
2017-07-22T05:39:53.630Z,752
2017-07-22T05:40:54.224Z,836
2017-07-22T05:41:53.900Z,908
2017-07-22T05:42:54.200Z,968
2017-07-22T05:43:54.189Z,1032
2017-07-22T05:44:53.886Z,1112
2017-07-22T05:45:54.160Z,1188
2017-07-22T05:46:54.143Z,1268
2017-07-22T05:47:54.130Z,1344
2017-07-22T05:48:54.110Z,1420
2017-07-22T05:49:53.500Z,1476
2017-07-22T05:50:53.891Z,1520
2017-07-22T05:51:54.100Z,1556
2017-07-22T05:52:54.170Z,1588
2017-07-22T05:53:53.428Z,1640
2017-07-22T05:54:54.083Z,1712
2017-07-22T05:55:53.410Z,1752
2017-07-22T05:56:53.998Z,1788
2017-07-22T05:57:54.060Z,1860
2017-07-22T05:58:53.699Z,1948
2017-07-22T05:59:54.079Z,2056
2017-07-22T06:00:53.089Z,2132
2017-07-22T06:01:53.704Z,2212
2017-07-22T06:02:53.926Z,2328
2017-07-22T06:03:53.091Z,2456
2017-07-22T06:04:53.901Z,2600
2017-07-22T06:05:53.593Z,2780
2017-07-22T06:06:53.574Z,2972
2017-07-22T06:07:53.926Z,3112
2017-07-22T06:08:53.853Z,3164
2017-07-22T06:09:53.829Z,3264
2017-07-22T06:10:53.560Z,3512
2017-07-22T06:11:53.489Z,3752
2017-07-22T06:12:53.785Z,3892
2017-07-22T06:13:53.469Z,3984
2017-07-22T06:14:53.463Z,4132
2017-07-22T06:15:53.491Z,4348
2017-07-22T06:16:53.129Z,4656
2017-07-22T06:17:53.110Z,4864
2017-07-22T06:18:53.090Z,4916
2017-07-22T06:19:53.701Z,5020
2017-07-22T06:20:53.404Z,5204
2017-07-22T06:21:53.484Z,5252
2017-07-22T06:22:53.692Z,5124
2017-07-22T06:23:53.346Z,5164
2017-07-22T06:24:53.009Z,5348
2017-07-22T06:25:53.091Z,5448
2017-07-22T06:26:53.281Z,5508
2017-07-22T06:27:52.966Z,5496
2017-07-22T06:28:53.280Z,5552
2017-07-22T06:29:53.250Z,5688
2017-07-22T06:30:52.940Z,5800
2017-07-22T06:31:53.295Z,5772
2017-07-22T06:32:53.204Z,5584
2017-07-22T06:33:53.502Z,5712
2017-07-22T06:34:52.893Z,5736
2017-07-22T06:35:53.180Z,5652
2017-07-22T06:36:53.460Z,5684
2017-07-22T06:37:52.842Z,5416
2017-07-22T06:38:52.891Z,5016
2017-07-22T06:39:53.123Z,4756
2017-07-22T06:40:53.105Z,4656
2017-07-22T06:41:52.802Z,4752
2017-07-22T06:42:53.070Z,4836
2017-07-22T06:43:53.056Z,5020
2017-07-22T06:44:53.061Z,5580
2017-07-22T06:45:53.043Z,5628
2017-07-22T06:46:53.127Z,5640
2017-07-22T06:47:53.326Z,5748
2017-07-22T06:48:53.310Z,5800
2017-07-22T06:49:52.983Z,5924
2017-07-22T06:50:53.000Z,5936
2017-07-22T06:51:53.261Z,6056
2017-07-22T06:52:53.237Z,5876
2017-07-22T06:53:53.227Z,5996
2017-07-22T06:54:52.910Z,5980
2017-07-22T06:55:53.215Z,6084
2017-07-22T06:56:52.882Z,6144
2017-07-22T06:57:52.885Z,6128
2017-07-22T06:58:53.159Z,6132
2017-07-22T06:59:53.154Z,6140
2017-07-22T07:00:52.824Z,6116
2017-07-22T07:01:52.827Z,6136
2017-07-22T07:02:53.110Z,6164
2017-07-22T07:03:53.101Z,6184
2017-07-22T07:04:52.793Z,6200
2017-07-22T07:05:52.470Z,6216
2017-07-22T07:06:53.060Z,6248
2017-07-22T07:07:53.051Z,6252
2017-07-22T07:08:53.041Z,6216
2017-07-22T07:09:53.012Z,6104
2017-07-22T07:10:53.011Z,6112
2017-07-22T07:11:52.999Z,6172
2017-07-22T07:12:52.684Z,6228
2017-07-22T07:13:52.971Z,6240
2017-07-22T07:14:52.962Z,6268
2017-07-22T07:15:52.956Z,6320
2017-07-22T07:16:52.316Z,6388
2017-07-22T07:17:52.631Z,6428
2017-07-22T07:18:52.596Z,6488
2017-07-22T07:19:52.892Z,6584
2017-07-22T07:20:52.894Z,6676
2017-07-22T07:21:52.914Z,6756
2017-07-22T07:22:52.948Z,6808
2017-07-22T07:23:52.883Z,6864
2017-07-22T07:24:52.214Z,6848
2017-07-22T07:25:52.620Z,6840
2017-07-22T07:26:52.809Z,6888
2017-07-22T07:27:52.863Z,6964
2017-07-22T07:28:52.795Z,7040
2017-07-22T07:29:52.828Z,7092
2017-07-22T07:30:52.450Z,7160
2017-07-22T07:31:52.802Z,7248
2017-07-22T07:32:52.413Z,7280
2017-07-22T07:33:52.411Z,7388
2017-07-22T07:34:52.388Z,7500
2017-07-22T07:35:52.428Z,7640
2017-07-22T07:36:52.360Z,7700
2017-07-22T07:37:52.382Z,7780
2017-07-22T07:38:52.369Z,7744
2017-07-22T07:39:52.341Z,7888
2017-07-22T07:40:52.612Z,7792
2017-07-22T07:41:52.622Z,7828
2017-07-22T07:42:52.305Z,7980
2017-07-22T07:43:52.581Z,8008
2017-07-22T07:44:52.571Z,8072
2017-07-22T07:45:52.294Z,8104
2017-07-22T07:46:52.568Z,8084
2017-07-22T07:47:52.532Z,8000
2017-07-22T07:48:52.228Z,7928
2017-07-22T07:49:52.199Z,7920
2017-07-22T07:50:52.510Z,7876
2017-07-22T07:51:51.892Z,7888
2017-07-22T07:52:52.179Z,7944
2017-07-22T07:53:52.471Z,7964
2017-07-22T07:54:52.461Z,7984
2017-07-22T07:55:52.458Z,7964
2017-07-22T07:56:52.121Z,7948
2017-07-22T07:57:52.411Z,7956
2017-07-22T07:58:52.390Z,7988
2017-07-22T07:59:52.385Z,8064
2017-07-22T08:00:52.070Z,8224
2017-07-22T08:01:52.372Z,8360
2017-07-22T08:02:52.360Z,8344
2017-07-22T08:03:52.350Z,8404
2017-07-22T08:04:52.321Z,8472
2017-07-22T08:05:51.722Z,8468
2017-07-22T08:06:52.010Z,8448
2017-07-22T08:07:52.324Z,8476
2017-07-22T08:08:51.990Z,8496
2017-07-22T08:09:52.297Z,8612
2017-07-22T08:10:51.973Z,8824
2017-07-22T08:11:51.641Z,8976
2017-07-22T08:12:52.223Z,9068
2017-07-22T08:13:51.946Z,9172
2017-07-22T08:14:51.643Z,9204
2017-07-22T08:15:52.000Z,9464
2017-07-22T08:16:51.994Z,10800
2017-07-22T08:17:51.911Z,9356
2017-07-22T08:18:52.161Z,9236
2017-07-22T08:19:51.841Z,9172
2017-07-22T08:20:51.858Z,9204
2017-07-22T08:21:52.129Z,9264
2017-07-22T08:22:51.511Z,9356
2017-07-22T08:23:52.111Z,9740
2017-07-22T08:24:51.892Z,11392
2017-07-22T08:25:52.080Z,10692
2017-07-22T08:26:51.779Z,9520
2017-07-22T08:27:52.070Z,9736
2017-07-22T08:28:51.763Z,10436
2017-07-22T08:29:51.742Z,9620
2017-07-22T08:30:51.414Z,9588
2017-07-22T08:31:52.049Z,9760
2017-07-22T08:32:51.732Z,10292
2017-07-22T08:33:52.049Z,10644
2017-07-22T08:34:52.021Z,13500
2017-07-22T08:35:52.013Z,20416
2017-07-22T08:36:51.671Z,31712
2017-07-22T08:37:51.716Z,48288
2017-07-22T08:38:52.039Z,61600
2017-07-22T08:39:51.941Z,41632
2017-07-22T08:40:51.619Z,18976
2017-07-22T08:41:51.920Z,15068
2017-07-22T08:42:51.913Z,86080
2017-07-22T08:43:51.944Z,40544
2017-07-22T08:44:52.010Z,71040
2017-07-22T08:45:51.919Z,83040
2017-07-22T08:46:51.868Z,84320
2017-07-22T08:47:51.860Z,78304
2017-07-22T08:48:51.860Z,79552
2017-07-22T08:49:51.866Z,81280
2017-07-22T08:50:51.289Z,86656
2017-07-22T08:51:51.832Z,60128
2017-07-22T08:52:51.820Z,78592
2017-07-22T08:53:51.502Z,85856
2017-07-22T08:54:51.821Z,10968
2017-07-22T08:55:51.790Z,12336
2017-07-22T08:56:51.809Z,80896
2017-07-22T08:57:51.183Z,83072
2017-07-22T08:58:51.479Z,86624
2017-07-22T08:59:51.782Z,83328
2017-07-22T09:00:51.741Z,83488
2017-07-22T09:01:51.441Z,51456
2017-07-22T09:02:51.743Z,15632
2017-07-22T09:03:51.551Z,65856
2017-07-22T09:04:51.716Z,82496
2017-07-22T09:05:51.721Z,80832
2017-07-22T09:06:51.709Z,83456
2017-07-22T09:07:51.731Z,82816
2017-07-22T09:08:51.709Z,79040
2017-07-22T09:09:51.820Z,17948
2017-07-22T09:10:51.701Z,84768
2017-07-22T09:11:51.809Z,80384
2017-07-22T09:12:51.792Z,78880
2017-07-22T09:13:51.371Z,76032
2017-07-22T09:14:51.710Z,60800
2017-07-22T09:15:51.372Z,82560
2017-07-22T09:16:51.350Z,78080
2017-07-22T09:17:51.718Z,69920
2017-07-22T09:18:51.049Z,16128
2017-07-22T09:19:51.340Z,24480
2017-07-22T09:20:51.342Z,21920
2017-07-22T09:21:51.350Z,76608
2017-07-22T09:22:51.659Z,61824
2017-07-22T09:23:51.696Z,74400
2017-07-22T09:24:51.637Z,75200
2017-07-22T09:25:51.619Z,76864
2017-07-22T09:26:51.008Z,73792
2017-07-22T09:27:51.612Z,70592
2017-07-22T09:28:51.296Z,67456
2017-07-22T09:29:51.618Z,70048
2017-07-22T09:30:51.635Z,72352
2017-07-22T09:31:51.313Z,73376
2017-07-22T09:32:51.290Z,68000
2017-07-22T09:33:51.578Z,58688
2017-07-22T09:34:50.969Z,64992
2017-07-22T09:35:51.587Z,71776
2017-07-22T09:36:51.592Z,70656
2017-07-22T09:37:51.586Z,73056
2017-07-22T09:38:51.580Z,50976
2017-07-22T09:39:51.572Z,35552
2017-07-22T09:40:51.588Z,33376
2017-07-22T09:41:51.567Z,31680
2017-07-22T09:42:51.681Z,58208
2017-07-22T09:43:51.566Z,63008
2017-07-22T09:44:50.942Z,61856
2017-07-22T09:45:51.271Z,57376
2017-07-22T09:46:50.952Z,59424
2017-07-22T09:47:51.250Z,66656
2017-07-22T09:48:50.939Z,54944
2017-07-22T09:49:51.567Z,63456
2017-07-22T09:50:51.569Z,58048
2017-07-22T09:51:51.561Z,62976
2017-07-22T09:52:51.598Z,63872
2017-07-22T09:53:51.585Z,60576
2017-07-22T09:54:51.538Z,59008
2017-07-22T09:55:51.234Z,56480
2017-07-22T09:56:50.913Z,59744
2017-07-22T09:57:51.238Z,61184
2017-07-22T09:58:51.548Z,61376
2017-07-22T09:59:51.562Z,59584
2017-07-22T10:00:51.540Z,57280
2017-07-22T10:01:51.276Z,58496
2017-07-22T10:02:51.237Z,54528
2017-07-22T10:03:50.930Z,53344
2017-07-22T10:04:50.909Z,52320
2017-07-22T10:05:51.520Z,52672
2017-07-22T10:06:51.520Z,54464
2017-07-22T10:07:51.497Z,53504
2017-07-22T10:08:51.208Z,55744
2017-07-22T10:09:51.258Z,52448
2017-07-22T10:10:51.490Z,53120
2017-07-22T10:11:50.877Z,52320
2017-07-22T10:12:51.180Z,51712
2017-07-22T10:13:51.268Z,49568
2017-07-22T10:14:51.505Z,46784
2017-07-22T10:15:51.524Z,45920
2017-07-22T10:16:51.502Z,29056
2017-07-22T10:17:50.868Z,8696
2017-07-22T10:18:51.161Z,45984
2017-07-22T10:19:51.498Z,48000
2017-07-22T10:20:51.601Z,47584
2017-07-22T10:21:51.520Z,44800
2017-07-22T10:22:51.148Z,43968
2017-07-22T10:23:51.537Z,33856
2017-07-22T10:24:51.490Z,15840
2017-07-22T10:25:51.449Z,11804
2017-07-22T10:26:51.460Z,10484
2017-07-22T10:27:51.154Z,9336
2017-07-22T10:28:51.444Z,9856
2017-07-22T10:29:50.835Z,8512
2017-07-22T10:30:51.141Z,12128
2017-07-22T10:31:51.445Z,11648
2017-07-22T10:32:51.420Z,11232
2017-07-22T10:33:51.126Z,11084
2017-07-22T10:34:51.182Z,10884
2017-07-22T10:35:51.417Z,10804
2017-07-22T10:36:51.118Z,11008
2017-07-22T10:37:51.415Z,10864
2017-07-22T10:38:51.393Z,11032
2017-07-22T10:39:51.098Z,10700
2017-07-22T10:40:51.094Z,7760
2017-07-22T10:41:51.080Z,7932
2017-07-22T10:42:51.071Z,7828
2017-07-22T10:43:50.746Z,7792
2017-07-22T10:44:51.066Z,7900
2017-07-22T10:45:51.046Z,9160
2017-07-22T10:46:51.387Z,9144
2017-07-22T10:47:50.738Z,11280
2017-07-22T10:48:50.737Z,11120
2017-07-22T10:49:51.335Z,10656
2017-07-22T10:50:51.438Z,11900
2017-07-22T10:51:51.388Z,12040
2017-07-22T10:52:51.420Z,9492
2017-07-22T10:53:51.023Z,11036
2017-07-22T10:54:51.450Z,11596
2017-07-22T10:55:50.997Z,8672
2017-07-22T10:56:51.295Z,10356
2017-07-22T10:57:51.327Z,10872
2017-07-22T10:58:50.975Z,8080
2017-07-22T10:59:51.276Z,10360
2017-07-22T11:00:51.264Z,7436
2017-07-22T11:01:50.667Z,7476
2017-07-22T11:02:51.297Z,9972
2017-07-22T11:03:51.232Z,10044
2017-07-22T11:04:50.660Z,9524
2017-07-22T11:05:51.235Z,9864
2017-07-22T11:06:51.229Z,9776
2017-07-22T11:07:50.920Z,9804
2017-07-22T11:08:50.910Z,9752
2017-07-22T11:09:51.220Z,9784
2017-07-22T11:10:50.900Z,9876
2017-07-22T11:11:51.202Z,9952
2017-07-22T11:12:51.142Z,9928
2017-07-22T11:13:50.979Z,9716
2017-07-22T11:14:51.181Z,9432
2017-07-22T11:15:50.889Z,9336
2017-07-22T11:16:50.857Z,9460
2017-07-22T11:17:50.871Z,8472
2017-07-22T11:18:51.156Z,7012
2017-07-22T11:19:51.166Z,7016
2017-07-22T11:20:51.139Z,6368
2017-07-22T11:21:50.531Z,6176
2017-07-22T11:22:50.830Z,6500
2017-07-22T11:23:51.139Z,6884
2017-07-22T11:24:51.137Z,6256
2017-07-22T11:25:51.118Z,8712
2017-07-22T11:26:51.114Z,8964
2017-07-22T11:27:50.790Z,8732
2017-07-22T11:28:50.765Z,9308
2017-07-22T11:29:51.145Z,8468
2017-07-22T11:30:51.092Z,8776
2017-07-22T11:31:51.070Z,9516
2017-07-22T11:32:50.749Z,9508
2017-07-22T11:33:50.808Z,9516
2017-07-22T11:34:51.081Z,9448
2017-07-22T11:35:50.729Z,9256
2017-07-22T11:36:50.713Z,9252
2017-07-22T11:37:50.735Z,9152
2017-07-22T11:38:50.710Z,9072
2017-07-22T11:39:51.008Z,8928
2017-07-22T11:40:50.415Z,8820
2017-07-22T11:41:50.693Z,8680
2017-07-22T11:42:50.680Z,8772
2017-07-22T11:43:50.683Z,8816
2017-07-22T11:44:50.670Z,8964
2017-07-22T11:45:50.976Z,8876
2017-07-22T11:46:50.969Z,8744
2017-07-22T11:47:50.962Z,8360
2017-07-22T11:48:50.638Z,8176
2017-07-22T11:49:50.648Z,8284
2017-07-22T11:50:50.358Z,8324
2017-07-22T11:51:50.632Z,8212
2017-07-22T11:52:50.929Z,8156
2017-07-22T11:53:50.917Z,7956
2017-07-22T11:54:50.907Z,7884
2017-07-22T11:55:50.609Z,7820
2017-07-22T11:56:50.604Z,5400
2017-07-22T11:57:50.887Z,7400
2017-07-22T11:58:50.598Z,7776
2017-07-22T11:59:50.867Z,7880
2017-07-22T12:00:50.402Z,7732
2017-07-22T12:01:50.869Z,7556
2017-07-22T12:02:50.939Z,7712
2017-07-22T12:03:50.606Z,7856
2017-07-22T12:04:50.569Z,7928
2017-07-22T12:05:50.551Z,7776
2017-07-22T12:06:50.869Z,7580
2017-07-22T12:07:50.541Z,7492
2017-07-22T12:08:50.536Z,7344
2017-07-22T12:09:50.809Z,7644
2017-07-22T12:10:50.510Z,7604
2017-07-22T12:11:50.807Z,6956
2017-07-22T12:12:50.795Z,7596
2017-07-22T12:13:50.779Z,7640
2017-07-22T12:14:50.488Z,7460
2017-07-22T12:15:50.499Z,7440
2017-07-22T12:16:50.775Z,7340
2017-07-22T12:17:50.778Z,7136
2017-07-22T12:18:50.762Z,7020
2017-07-22T12:19:50.457Z,7024
2017-07-22T12:20:50.457Z,7284
2017-07-22T12:21:50.760Z,7364
2017-07-22T12:22:50.756Z,7336
2017-07-22T12:23:50.748Z,7236
2017-07-22T12:24:50.738Z,7276
2017-07-22T12:25:50.728Z,7244
2017-07-22T12:26:50.715Z,7248
2017-07-22T12:27:50.495Z,7304
2017-07-22T12:28:50.708Z,7208
2017-07-22T12:29:50.697Z,7252
2017-07-22T12:30:50.391Z,7156
2017-07-22T12:31:50.689Z,7124
2017-07-22T12:32:50.399Z,7488
2017-07-22T12:33:50.702Z,7616
2017-07-22T12:34:50.687Z,7480
2017-07-22T12:35:50.788Z,7648
2017-07-22T12:36:50.657Z,7768
2017-07-22T12:37:50.727Z,7892
2017-07-22T12:38:50.350Z,7932
2017-07-22T12:39:50.751Z,7888
2017-07-22T12:40:50.676Z,7896
2017-07-22T12:41:50.419Z,7772
2017-07-22T12:42:50.665Z,7928
2017-07-22T12:43:50.655Z,7896
2017-07-22T12:44:50.682Z,7948
2017-07-22T12:45:50.723Z,7672
2017-07-22T12:46:50.628Z,7832
2017-07-22T12:47:50.607Z,7964
2017-07-22T12:48:50.601Z,7392
2017-07-22T12:49:50.597Z,5148
2017-07-22T12:50:50.643Z,5316
2017-07-22T12:51:50.582Z,8028
2017-07-22T12:52:50.550Z,7948
2017-07-22T12:53:50.271Z,7740
2017-07-22T12:54:50.566Z,7956
2017-07-22T12:55:50.568Z,7944
2017-07-22T12:56:50.579Z,7888
2017-07-22T12:57:50.257Z,7772
2017-07-22T12:58:50.548Z,7620
2017-07-22T12:59:50.517Z,7572
2017-07-22T13:00:50.536Z,7716
2017-07-22T13:01:50.209Z,7584
2017-07-22T13:02:50.506Z,7472
2017-07-22T13:03:50.506Z,7496
2017-07-22T13:04:49.866Z,7688
2017-07-22T13:05:50.504Z,7776
2017-07-22T13:06:50.478Z,8036
2017-07-22T13:07:50.478Z,7920
2017-07-22T13:08:49.878Z,8360
2017-07-22T13:09:50.497Z,8324
2017-07-22T13:10:50.248Z,8168
2017-07-22T13:11:50.511Z,8260
2017-07-22T13:12:50.468Z,8452
2017-07-22T13:13:50.543Z,8472
2017-07-22T13:14:49.953Z,8440
2017-07-22T13:15:50.536Z,8132
2017-07-22T13:16:50.450Z,8016
2017-07-22T13:17:50.473Z,7980
2017-07-22T13:18:50.157Z,8084
2017-07-22T13:19:50.483Z,8216
2017-07-22T13:20:50.423Z,8308
2017-07-22T13:21:50.415Z,8468
2017-07-22T13:22:50.416Z,8580
2017-07-22T13:23:50.409Z,8688
2017-07-22T13:24:50.440Z,8724
2017-07-22T13:25:50.507Z,8720
2017-07-22T13:26:50.387Z,8736
2017-07-22T13:27:50.388Z,8724
2017-07-22T13:28:50.058Z,8736
2017-07-22T13:29:50.406Z,8708
2017-07-22T13:30:50.380Z,6408
2017-07-22T13:31:50.065Z,6024
2017-07-22T13:32:50.347Z,8844
2017-07-22T13:33:50.044Z,8796
2017-07-22T13:34:50.341Z,8696
2017-07-22T13:35:50.107Z,8488
2017-07-22T13:36:50.100Z,8420
2017-07-22T13:37:50.341Z,8488
2017-07-22T13:38:49.779Z,7816
2017-07-22T13:39:50.004Z,8464
2017-07-22T13:40:50.321Z,8316
2017-07-22T13:41:50.027Z,4956
2017-07-22T13:42:49.989Z,4736